createdAt,value
2018-08-11T00:00:18.683Z,1.83
2018-08-11T00:02:46.991Z,1.50
2018-08-11T00:05:15.339Z,1.67
2018-08-11T00:07:43.622Z,1.60
2018-08-11T00:10:11.811Z,2.20
2018-08-11T00:12:41.277Z,1.93
2018-08-11T00:15:12.255Z,1.70
2018-08-11T00:17:41.012Z,1.97
2018-08-11T00:20:12.028Z,1.57
2018-08-11T00:22:41.240Z,1.80
2018-08-11T00:25:11.197Z,1.93
2018-08-11T00:27:39.499Z,2.60
2018-08-11T00:30:10.438Z,1.92
2018-08-11T00:32:38.847Z,2.10
2018-08-11T00:35:09.728Z,2.12
2018-08-11T00:37:38.362Z,1.90
2018-08-11T00:40:15.812Z,1.90
2018-08-11T00:42:45.123Z,2.17
2018-08-11T00:45:14.637Z,2.30
2018-08-11T00:47:43.062Z,2.27
2018-08-11T00:50:19.865Z,2.00
2018-08-11T00:52:48.303Z,2.13
2018-08-11T00:55:16.691Z,1.90
2018-08-11T00:57:45.084Z,2.10
2018-08-11T01:00:17.251Z,2.00
2018-08-11T01:02:45.742Z,1.80
2018-08-11T01:05:16.776Z,1.98
2018-08-11T01:07:45.748Z,2.07
2018-08-11T01:10:14.667Z,1.80
2018-08-11T01:12:43.724Z,2.03
2018-08-11T01:15:14.023Z,2.10
2018-08-11T01:17:42.214Z,1.80
2018-08-11T01:20:11.271Z,1.73
2018-08-11T01:22:40.364Z,1.72
2018-08-11T01:25:09.305Z,1.80
2018-08-11T01:27:37.835Z,1.75
2018-08-11T01:30:09.964Z,1.87
2018-08-11T01:32:38.195Z,1.80
2018-08-11T01:35:07.344Z,1.60
2018-08-11T01:37:36.152Z,1.72
2018-08-11T01:40:05.143Z,1.50
2018-08-11T01:42:33.391Z,1.92
2018-08-11T01:45:01.797Z,1.43
2018-08-11T01:47:30.053Z,1.53
2018-08-11T01:49:58.270Z,1.60
2018-08-11T01:52:26.438Z,1.60
2018-08-11T01:54:54.929Z,1.70
2018-08-11T01:57:23.127Z,1.70
2018-08-11T01:59:51.297Z,1.63
2018-08-11T02:02:20.066Z,1.70
2018-08-11T02:04:48.269Z,1.50
2018-08-11T02:07:17.076Z,1.33
2018-08-11T02:09:45.267Z,1.50
2018-08-11T02:12:13.487Z,1.55
2018-08-11T02:14:41.671Z,1.40
2018-08-11T02:17:10.847Z,1.40
2018-08-11T02:19:39.032Z,1.25
2018-08-11T02:22:07.258Z,1.30
2018-08-11T02:24:35.461Z,1.43
2018-08-11T02:27:03.657Z,1.30
2018-08-11T02:29:31.830Z,1.30
2018-08-11T02:32:00.068Z,1.60
2018-08-11T02:34:28.317Z,1.40
2018-08-11T02:36:56.440Z,1.35
2018-08-11T02:39:24.627Z,1.30
2018-08-11T02:41:52.848Z,1.60
2018-08-11T02:44:21.020Z,1.30
2018-08-11T02:46:49.185Z,1.33
2018-08-11T02:49:17.383Z,1.30
2018-08-11T02:51:45.569Z,1.35
2018-08-11T02:54:13.772Z,1.60
2018-08-11T02:56:41.940Z,1.60
2018-08-11T02:59:10.119Z,1.37
2018-08-11T03:01:38.286Z,1.40
2018-08-11T03:04:06.475Z,1.43
2018-08-11T03:06:34.683Z,1.50
2018-08-11T03:09:02.887Z,1.73
2018-08-11T03:11:31.103Z,1.40
2018-08-11T03:13:59.371Z,2.25
2018-08-11T03:16:27.504Z,1.60
2018-08-11T03:18:55.724Z,1.50
2018-08-11T03:21:24.022Z,1.50
2018-08-11T03:23:52.225Z,1.67
2018-08-11T03:26:20.500Z,1.37
2018-08-11T03:28:48.686Z,1.50
2018-08-11T03:31:16.887Z,1.40
2018-08-11T03:33:45.083Z,1.57
2018-08-11T03:36:13.289Z,1.60
2018-08-11T03:38:41.505Z,1.63
2018-08-11T03:41:09.695Z,1.60
2018-08-11T03:43:38.483Z,1.42
2018-08-11T03:46:07.070Z,1.43
2018-08-11T03:48:35.270Z,1.25
2018-08-11T03:51:03.508Z,1.50
2018-08-11T03:53:31.707Z,1.60
2018-08-11T03:55:59.952Z,1.70
2018-08-11T03:58:28.172Z,1.50
2018-08-11T04:00:56.400Z,1.40
2018-08-11T04:03:24.606Z,1.40
2018-08-11T04:05:52.849Z,1.47
2018-08-11T04:08:21.060Z,1.60
2018-08-11T04:10:49.346Z,1.40
2018-08-11T04:13:17.575Z,1.60
2018-08-11T04:15:45.799Z,1.50
2018-08-11T04:18:14.016Z,1.40
2018-08-11T04:20:42.192Z,1.67
2018-08-11T04:23:10.453Z,1.87
2018-08-11T04:25:38.637Z,1.63
2018-08-11T04:28:06.839Z,1.43
2018-08-11T04:30:35.074Z,1.50
2018-08-11T04:33:03.254Z,1.60
2018-08-11T04:35:31.472Z,1.50
2018-08-11T04:37:59.732Z,1.50
2018-08-11T04:40:27.927Z,1.57
2018-08-11T04:42:56.158Z,1.57
2018-08-11T04:45:24.354Z,1.57
2018-08-11T04:47:52.571Z,1.40
2018-08-11T04:50:20.755Z,1.97
2018-08-11T04:52:48.979Z,1.35
2018-08-11T04:55:17.278Z,1.60
2018-08-11T04:57:45.523Z,1.90
2018-08-11T05:00:13.732Z,1.30
2018-08-11T05:02:41.891Z,1.60
2018-08-11T05:05:10.183Z,1.63
2018-08-11T05:07:38.871Z,1.52
2018-08-11T05:10:07.764Z,1.87
2018-08-11T05:12:36.028Z,1.53
2018-08-11T05:15:05.176Z,1.40
2018-08-11T05:17:33.498Z,1.32
2018-08-11T05:20:01.795Z,1.40
2018-08-11T05:22:29.917Z,1.73
2018-08-11T05:24:58.119Z,1.50
2018-08-11T05:27:26.307Z,1.40
2018-08-11T05:29:54.654Z,1.40
2018-08-11T05:32:22.855Z,1.53
2018-08-11T05:34:51.092Z,1.30
2018-08-11T05:37:19.317Z,1.80
2018-08-11T05:39:47.536Z,1.27
2018-08-11T05:42:15.772Z,1.53
2018-08-11T05:44:43.980Z,1.50
2018-08-11T05:47:12.200Z,1.43
2018-08-11T05:49:40.459Z,1.50
2018-08-11T05:52:08.786Z,1.65
2018-08-11T05:54:37.015Z,1.40
2018-08-11T05:57:05.242Z,1.30
2018-08-11T05:59:33.554Z,1.60
2018-08-11T06:02:01.739Z,1.60
2018-08-11T06:04:29.919Z,1.40
2018-08-11T06:06:58.189Z,1.62
2018-08-11T06:09:26.459Z,1.50
2018-08-11T06:11:54.671Z,1.50
2018-08-11T06:14:22.910Z,1.30
2018-08-11T06:16:51.200Z,1.40
2018-08-11T06:19:19.444Z,1.30
2018-08-11T06:21:47.639Z,1.40
2018-08-11T06:24:15.912Z,1.67
2018-08-11T06:26:44.160Z,1.50
2018-08-11T06:29:12.471Z,1.70
2018-08-11T06:31:40.735Z,1.70
2018-08-11T06:34:08.931Z,1.50
2018-08-11T06:36:37.197Z,1.32
2018-08-11T06:39:08.865Z,1.60
2018-08-11T06:41:37.338Z,1.20
2018-08-11T06:44:05.604Z,1.67
2018-08-11T06:46:33.901Z,1.70
2018-08-11T06:49:02.249Z,1.63
2018-08-11T06:51:30.439Z,1.50
2018-08-11T06:53:59.431Z,1.40
2018-08-11T06:56:27.635Z,1.50
2018-08-11T06:58:55.889Z,1.67
2018-08-11T07:01:24.079Z,1.57
2018-08-11T07:03:53.351Z,2.00
2018-08-11T07:06:21.821Z,1.67
2018-08-11T07:08:50.016Z,1.70
2018-08-11T07:11:18.178Z,1.82
2018-08-11T07:13:46.351Z,1.60
2018-08-11T07:16:14.590Z,2.00
2018-08-11T07:18:42.800Z,1.80
2018-08-11T07:21:11.199Z,1.90
2018-08-11T07:23:39.554Z,1.70
2018-08-11T07:26:08.143Z,1.97
2018-08-11T07:28:36.419Z,1.72
2018-08-11T07:31:04.656Z,1.70
2018-08-11T07:33:32.822Z,2.00
2018-08-11T07:36:01.058Z,1.65
2018-08-11T07:38:29.249Z,1.80
2018-08-11T07:40:57.500Z,1.40
2018-08-11T07:43:25.895Z,1.77
2018-08-11T07:45:54.085Z,1.60
2018-08-11T07:48:22.456Z,1.63
2018-08-11T07:50:50.931Z,1.90
2018-08-11T07:53:19.109Z,1.73
2018-08-11T07:55:47.355Z,1.63
2018-08-11T07:58:15.530Z,2.00
2018-08-11T08:00:43.799Z,1.83
2018-08-11T08:03:12.028Z,1.80
2018-08-11T08:05:40.254Z,1.95
2018-08-11T08:08:08.653Z,1.50
2018-08-11T08:10:36.846Z,1.65
2018-08-11T08:13:05.210Z,1.50
2018-08-11T08:15:33.424Z,1.60
2018-08-11T08:18:01.705Z,1.30
2018-08-11T08:20:29.976Z,1.22
2018-08-11T08:22:58.211Z,1.30
2018-08-11T08:25:26.497Z,1.30
2018-08-11T08:27:54.677Z,1.30
2018-08-11T08:30:22.955Z,1.37
2018-08-11T08:32:52.577Z,1.27
2018-08-11T08:35:21.092Z,1.20
2018-08-11T08:37:49.318Z,1.30
2018-08-11T08:40:17.643Z,1.50
2018-08-11T08:42:45.847Z,1.37
2018-08-11T08:45:14.144Z,1.23
2018-08-11T08:47:42.361Z,1.40
2018-08-11T08:50:10.604Z,1.40
2018-08-11T08:52:39.311Z,1.30
2018-08-11T08:55:07.513Z,1.30
2018-08-11T08:57:36.055Z,1.10
2018-08-11T09:00:04.692Z,1.47
2018-08-11T09:02:32.917Z,1.60
2018-08-11T09:05:01.133Z,1.43
2018-08-11T09:07:29.414Z,1.37
2018-08-11T09:09:57.650Z,1.20
2018-08-11T09:12:25.879Z,1.37
2018-08-11T09:14:54.152Z,1.22
2018-08-11T09:17:22.426Z,1.40
2018-08-11T09:19:50.703Z,1.10
2018-08-11T09:22:18.877Z,1.42
2018-08-11T09:24:47.077Z,1.30
2018-08-11T09:27:15.301Z,1.30
2018-08-11T09:29:43.468Z,1.30
2018-08-11T09:32:11.807Z,1.20
2018-08-11T09:34:40.044Z,1.20
2018-08-11T09:37:08.296Z,1.00
2018-08-11T09:39:36.554Z,1.30
2018-08-11T09:42:04.754Z,1.20
2018-08-11T09:44:32.961Z,1.10
2018-08-11T09:47:01.145Z,1.20
2018-08-11T09:49:29.392Z,1.30
2018-08-11T09:51:57.583Z,1.30
2018-08-11T09:54:25.766Z,1.33
2018-08-11T09:56:53.980Z,1.20
2018-08-11T09:59:22.198Z,1.17
2018-08-11T10:01:55.741Z,1.17
2018-08-11T10:04:23.911Z,1.37
2018-08-11T10:06:52.880Z,1.53
2018-08-11T10:09:21.049Z,1.80
2018-08-11T10:11:49.231Z,1.72
2018-08-11T10:14:17.429Z,1.80
2018-08-11T10:16:45.685Z,1.60
2018-08-11T10:19:13.893Z,1.45
2018-08-11T10:21:42.161Z,1.50
2018-08-11T10:24:10.513Z,1.37
2018-08-11T10:26:38.952Z,1.70
2018-08-11T10:29:07.226Z,1.50
2018-08-11T10:31:35.408Z,1.57
2018-08-11T10:34:03.564Z,1.65
2018-08-11T10:36:31.718Z,1.70
2018-08-11T10:39:00.015Z,1.50
2018-08-11T10:41:28.260Z,1.62
2018-08-11T10:43:56.443Z,1.30
2018-08-11T10:46:24.705Z,1.30
2018-08-11T10:48:52.863Z,1.37
2018-08-11T10:51:21.140Z,1.57
2018-08-11T10:53:49.336Z,1.53
2018-08-11T10:56:17.569Z,1.35
2018-08-11T10:58:45.811Z,1.30
2018-08-11T11:01:14.118Z,1.63
2018-08-11T11:03:42.277Z,1.40
2018-08-11T11:06:10.620Z,1.47
2018-08-11T11:08:38.882Z,1.17
2018-08-11T11:11:07.595Z,1.27
2018-08-11T11:13:36.078Z,1.43
2018-08-11T11:16:04.441Z,1.65
2018-08-11T11:18:32.644Z,1.50
2018-08-11T11:21:01.041Z,1.70
2018-08-11T11:23:29.361Z,1.30
2018-08-11T11:25:57.578Z,1.50
2018-08-11T11:28:25.806Z,1.30
2018-08-11T11:30:53.989Z,1.30
2018-08-11T11:33:22.224Z,1.50
2018-08-11T11:35:50.521Z,1.37
2018-08-11T11:38:18.749Z,1.37
2018-08-11T11:40:46.911Z,1.10
2018-08-11T11:43:15.250Z,1.50
2018-08-11T11:45:43.420Z,1.30
2018-08-11T11:48:11.739Z,1.13
2018-08-11T11:50:39.948Z,1.67
2018-08-11T11:53:08.249Z,1.37
2018-08-11T11:55:36.543Z,1.50
2018-08-11T11:58:04.818Z,1.30
2018-08-11T12:00:32.974Z,1.40
2018-08-11T12:03:01.197Z,1.60
2018-08-11T12:05:29.427Z,1.30
2018-08-11T12:07:57.684Z,1.67
2018-08-11T12:10:26.052Z,1.17
2018-08-11T12:12:54.382Z,1.53
2018-08-11T12:15:22.534Z,1.70
2018-08-11T12:17:50.735Z,1.20
2018-08-11T12:20:18.902Z,1.60
2018-08-11T12:22:47.172Z,1.35
2018-08-11T12:25:15.348Z,1.40
2018-08-11T12:27:43.499Z,1.53
2018-08-11T12:30:11.751Z,1.22
2018-08-11T12:32:39.978Z,1.47
2018-08-11T12:35:08.147Z,1.20
2018-08-11T12:37:36.360Z,1.40
2018-08-11T12:40:04.980Z,1.20
2018-08-11T12:42:33.231Z,1.40
2018-08-11T12:45:01.389Z,1.33
2018-08-11T12:47:29.580Z,1.50
2018-08-11T12:49:57.756Z,1.30
2018-08-11T12:52:25.929Z,1.40
2018-08-11T12:54:54.127Z,1.20
2018-08-11T12:57:22.276Z,1.10
2018-08-11T12:59:50.459Z,1.30
2018-08-11T13:02:18.682Z,1.35
2018-08-11T13:04:46.881Z,1.30
2018-08-11T13:07:15.055Z,1.30
2018-08-11T13:09:43.248Z,1.20
2018-08-11T13:12:11.418Z,1.20
2018-08-11T13:14:39.633Z,1.40
2018-08-11T13:17:07.780Z,1.37
2018-08-11T13:19:35.961Z,1.20
2018-08-11T13:22:04.114Z,1.63
2018-08-11T13:24:32.291Z,1.40
2018-08-11T13:27:00.443Z,1.37
2018-08-11T13:29:28.651Z,1.37
2018-08-11T13:31:56.850Z,1.45
2018-08-11T13:34:25.006Z,1.30
2018-08-11T13:36:53.214Z,1.30
2018-08-11T13:39:21.396Z,1.30
2018-08-11T13:41:50.217Z,1.10
2018-08-11T13:44:19.447Z,1.20
2018-08-11T13:46:47.631Z,1.40
2018-08-11T13:49:15.840Z,1.30
2018-08-11T13:51:44.052Z,1.35
2018-08-11T13:54:12.253Z,1.20
2018-08-11T13:56:40.499Z,1.50
2018-08-11T13:59:08.781Z,1.45
2018-08-11T14:01:37.052Z,1.33
2018-08-11T14:04:05.208Z,1.33
2018-08-11T14:06:33.375Z,1.30
2018-08-11T14:09:01.529Z,1.23
2018-08-11T14:11:29.707Z,1.37
2018-08-11T14:13:57.967Z,1.30
2018-08-11T14:16:26.175Z,1.40
2018-08-11T14:18:54.406Z,1.17
2018-08-11T14:21:22.573Z,1.35
2018-08-11T14:23:50.849Z,1.20
2018-08-11T14:26:19.114Z,1.43
2018-08-11T14:28:47.725Z,1.30
2018-08-11T14:31:15.927Z,1.00
2018-08-11T14:33:44.076Z,1.43
2018-08-11T14:36:12.400Z,1.57
2018-08-11T14:38:40.593Z,1.30
2018-08-11T14:41:08.868Z,1.30
2018-08-11T14:43:37.459Z,1.40
2018-08-11T14:46:06.636Z,1.40
2018-08-11T14:48:34.810Z,1.57
2018-08-11T14:51:03.584Z,1.50
2018-08-11T14:53:31.843Z,1.40
2018-08-11T14:56:00.127Z,1.92
2018-08-11T14:58:28.392Z,1.53
2018-08-11T15:00:56.728Z,1.30
2018-08-11T15:03:24.989Z,1.22
2018-08-11T15:05:53.186Z,1.40
2018-08-11T15:08:21.373Z,1.33
2018-08-11T15:10:49.623Z,1.32
2018-08-11T15:13:17.917Z,1.30
2018-08-11T15:15:46.994Z,1.40
2018-08-11T15:18:15.180Z,1.30
2018-08-11T15:20:44.012Z,1.25
2018-08-11T15:23:12.261Z,1.37
2018-08-11T15:25:40.457Z,1.60
2018-08-11T15:28:08.651Z,1.20
2018-08-11T15:30:36.969Z,1.23
2018-08-11T15:33:05.518Z,1.50
2018-08-11T15:35:34.342Z,1.40
2018-08-11T15:38:03.514Z,1.20
2018-08-11T15:40:32.213Z,1.20
2018-08-11T15:43:00.379Z,1.40
2018-08-11T15:45:28.562Z,1.37
2018-08-11T15:47:56.739Z,1.27
2018-08-11T15:50:24.948Z,1.30
2018-08-11T15:52:53.104Z,1.20
2018-08-11T15:55:21.334Z,1.60
2018-08-11T15:57:49.557Z,1.30
2018-08-11T16:00:18.255Z,1.30
2018-08-11T16:02:46.491Z,1.30
2018-08-11T16:05:14.707Z,1.33
2018-08-11T16:07:42.904Z,1.20
2018-08-11T16:10:11.127Z,1.47
2018-08-11T16:12:39.304Z,1.33
2018-08-11T16:15:07.503Z,1.27
2018-08-11T16:17:35.674Z,1.30
2018-08-11T16:20:04.264Z,1.03
2018-08-11T16:22:32.487Z,1.73
2018-08-11T16:25:00.742Z,1.20
2018-08-11T16:27:29.071Z,1.10
2018-08-11T16:29:58.357Z,1.30
2018-08-11T16:32:26.617Z,1.50
2018-08-11T16:34:54.808Z,1.23
2018-08-11T16:37:23.125Z,1.30
2018-08-11T16:39:51.588Z,1.00
2018-08-11T16:42:20.150Z,1.10
2018-08-11T16:44:48.368Z,1.10
2018-08-11T16:47:16.641Z,1.02
2018-08-11T16:49:44.902Z,1.23
2018-08-11T16:52:13.117Z,1.70
2018-08-11T16:54:41.277Z,1.67
2018-08-11T16:57:09.571Z,1.13
2018-08-11T16:59:37.748Z,1.20
2018-08-11T17:02:06.118Z,1.30
2018-08-11T17:04:34.315Z,1.43
2018-08-11T17:07:02.509Z,1.20
2018-08-11T17:09:30.843Z,1.20
2018-08-11T17:11:59.076Z,1.40
2018-08-11T17:14:27.338Z,1.20
2018-08-11T17:16:55.498Z,1.35
2018-08-11T17:19:23.747Z,1.20
2018-08-11T17:21:51.955Z,1.60
2018-08-11T17:24:20.402Z,1.52
2018-08-11T17:26:48.646Z,1.90
2018-08-11T17:29:16.860Z,1.80
2018-08-11T17:31:45.072Z,1.37
2018-08-11T17:34:13.264Z,1.60
2018-08-11T17:36:41.507Z,1.47
2018-08-11T17:39:10.935Z,1.30
2018-08-11T17:41:39.230Z,1.40
2018-08-11T17:44:08.234Z,1.43
2018-08-11T17:46:36.475Z,1.30
2018-08-11T17:49:04.995Z,1.15
2018-08-11T17:51:33.227Z,1.10
2018-08-11T17:54:01.500Z,1.30
2018-08-11T17:56:29.845Z,0.90
2018-08-11T17:58:58.127Z,1.10
2018-08-11T18:01:26.366Z,1.30
2018-08-11T18:03:54.671Z,1.20
2018-08-11T18:06:22.956Z,1.30
2018-08-11T18:08:51.244Z,1.30
2018-08-11T18:11:19.454Z,1.40
2018-08-11T18:13:47.726Z,2.57
2018-08-11T18:16:15.927Z,2.20
2018-08-11T18:18:44.188Z,2.12
2018-08-11T18:21:12.391Z,1.73
2018-08-11T18:23:40.590Z,1.80
2018-08-11T18:26:08.782Z,1.72
2018-08-11T18:28:36.977Z,1.30
2018-08-11T18:31:05.678Z,1.60
2018-08-11T18:33:33.959Z,1.60
2018-08-11T18:36:05.077Z,2.60
2018-08-11T18:38:35.125Z,2.30
2018-08-11T18:41:04.282Z,3.00
2018-08-11T18:43:32.860Z,1.40
2018-08-11T18:46:01.092Z,1.50
2018-08-11T18:48:29.317Z,1.30
2018-08-11T18:50:57.566Z,1.27
2018-08-11T18:53:25.788Z,1.20
2018-08-11T18:55:53.994Z,1.10
2018-08-11T18:58:22.237Z,1.40
2018-08-11T19:00:50.474Z,1.37
2018-08-11T19:03:18.669Z,1.43
2018-08-11T19:05:46.871Z,1.37
2018-08-11T19:08:15.135Z,1.20
2018-08-11T19:10:43.340Z,1.60
2018-08-11T19:13:11.536Z,1.40
2018-08-11T19:15:39.683Z,1.50
2018-08-11T19:18:07.908Z,1.50
2018-08-11T19:20:36.125Z,1.30
2018-08-11T19:23:04.366Z,1.30
2018-08-11T19:25:32.707Z,1.20
2018-08-11T19:28:00.852Z,1.30
2018-08-11T19:30:29.350Z,1.20
2018-08-11T19:32:57.584Z,1.45
2018-08-11T19:35:25.871Z,1.20
2018-08-11T19:37:54.081Z,1.20
2018-08-11T19:40:22.401Z,1.30
2018-08-11T19:42:50.687Z,1.25
2018-08-11T19:45:19.476Z,1.80
2018-08-11T19:47:47.725Z,1.43
2018-08-11T19:50:15.946Z,1.70
2018-08-11T19:52:44.300Z,1.50
2018-08-11T19:55:12.571Z,1.40
2018-08-11T19:57:40.743Z,1.43
2018-08-11T20:00:11.127Z,1.70
2018-08-11T20:02:39.757Z,1.50
2018-08-11T20:05:08.522Z,1.40
2018-08-11T20:07:36.709Z,1.62
2018-08-11T20:10:05.484Z,1.40
2018-08-11T20:12:33.740Z,1.70
2018-08-11T20:15:01.896Z,1.40
2018-08-11T20:17:30.061Z,1.57
2018-08-11T20:19:58.227Z,1.50
2018-08-11T20:22:26.415Z,1.80
2018-08-11T20:24:54.613Z,1.40
2018-08-11T20:27:22.808Z,1.80
2018-08-11T20:29:51.036Z,1.80
2018-08-11T20:32:19.276Z,1.70
2018-08-11T20:34:47.520Z,1.60
2018-08-11T20:37:15.754Z,1.80
2018-08-11T20:39:43.912Z,1.97
2018-08-11T20:42:13.092Z,1.80
2018-08-11T20:44:41.284Z,2.00
2018-08-11T20:47:09.443Z,1.90
2018-08-11T20:49:37.692Z,1.70
2018-08-11T20:52:05.916Z,1.63
2018-08-11T20:54:34.391Z,1.80
2018-08-11T20:57:03.004Z,2.20
2018-08-11T20:59:31.224Z,1.90
2018-08-11T21:01:59.443Z,2.53
2018-08-11T21:04:27.978Z,2.10
2018-08-11T21:06:56.228Z,1.87
2018-08-11T21:09:24.372Z,2.57
2018-08-11T21:11:52.623Z,4.27
2018-08-11T21:14:20.851Z,4.33
2018-08-11T21:16:49.064Z,3.58
2018-08-11T21:19:17.264Z,2.57
2018-08-11T21:21:45.450Z,3.23
2018-08-11T21:24:13.658Z,2.92
2018-08-11T21:26:41.849Z,2.60
2018-08-11T21:29:10.051Z,3.03
2018-08-11T21:31:39.107Z,2.58
2018-08-11T21:34:07.298Z,2.67
2018-08-11T21:36:35.560Z,2.60
2018-08-11T21:39:05.951Z,2.20
2018-08-11T21:41:34.174Z,2.23
2018-08-11T21:44:02.364Z,2.37
2018-08-11T21:46:30.554Z,2.50
2018-08-11T21:48:58.817Z,2.60
2018-08-11T21:51:27.008Z,2.10
2018-08-11T21:53:55.230Z,2.70
2018-08-11T21:56:24.138Z,2.70
2018-08-11T21:58:52.470Z,2.50
2018-08-11T22:01:20.805Z,2.83
2018-08-11T22:03:49.229Z,2.50
2018-08-11T22:06:17.548Z,2.60
2018-08-11T22:08:45.747Z,3.03
2018-08-11T22:11:14.520Z,2.73
2018-08-11T22:13:42.709Z,2.47
2018-08-11T22:16:10.915Z,2.40
2018-08-11T22:18:39.104Z,2.43
2018-08-11T22:21:07.282Z,2.30
2018-08-11T22:23:35.490Z,2.77
2018-08-11T22:26:03.768Z,3.23
2018-08-11T22:28:31.954Z,2.60
2018-08-11T22:31:00.112Z,2.90
2018-08-11T22:33:28.264Z,2.90
2018-08-11T22:35:56.476Z,2.60
2018-08-11T22:38:24.611Z,3.47
2018-08-11T22:40:52.796Z,2.60
2018-08-11T22:43:20.964Z,3.03
2018-08-11T22:45:49.159Z,2.92
2018-08-11T22:48:18.235Z,2.90
2018-08-11T22:50:46.399Z,3.00
2018-08-11T22:53:14.570Z,2.90
2018-08-11T22:55:42.715Z,2.87
2018-08-11T22:58:10.903Z,2.80
2018-08-11T23:00:39.197Z,2.97
2018-08-11T23:03:07.342Z,2.77
2018-08-11T23:05:35.532Z,2.50
2018-08-11T23:08:03.668Z,3.30
2018-08-11T23:10:31.850Z,2.95
2018-08-11T23:13:00.002Z,2.90
2018-08-11T23:15:28.147Z,2.63
2018-08-11T23:17:56.331Z,2.62
2018-08-11T23:20:24.500Z,2.90
2018-08-11T23:22:52.655Z,2.60
2018-08-11T23:25:20.847Z,2.92
2018-08-11T23:27:48.994Z,2.73
2018-08-11T23:30:17.837Z,2.70
2018-08-11T23:32:46.111Z,2.63
2018-08-11T23:35:14.459Z,2.98
2018-08-11T23:37:43.065Z,2.53
2018-08-11T23:40:11.452Z,3.08
2018-08-11T23:42:39.620Z,3.30
2018-08-11T23:45:10.847Z,2.80
2018-08-11T23:47:39.280Z,3.00
2018-08-11T23:50:08.135Z,2.75
2018-08-11T23:52:36.280Z,2.90
2018-08-11T23:55:05.361Z,3.20
2018-08-11T23:57:33.632Z,2.53
